sensor_id;sensor_type;location;lat;lon;timestamp;pressure;altitude;pressure_sealevel;temperature;humidity
51359;BME280;37448;51.588;7.248;2022-09-19T00:00:22;100819.22;;;8.66;100.00
51359;BME280;37448;51.588;7.248;2022-09-19T00:02:53;100817.97;;;8.63;100.00
51359;BME280;37448;51.588;7.248;2022-09-19T00:05:24;100821.41;;;8.60;100.00
51359;BME280;37448;51.588;7.248;2022-09-19T00:07:55;100819.13;;;8.62;100.00
51359;BME280;37448;51.588;7.248;2022-09-19T00:10:25;100812.72;;;8.58;100.00
51359;BME280;37448;51.588;7.248;2022-09-19T00:12:56;100814.66;;;8.58;100.00
51359;BME280;37448;51.588;7.248;2022-09-19T00:15:27;100815.56;;;8.62;100.00
51359;BME280;37448;51.588;7.248;2022-09-19T00:17:59;100812.50;;;8.63;100.00
51359;BME280;37448;51.588;7.248;2022-09-19T00:20:30;100809.28;;;8.61;100.00
51359;BME280;37448;51.588;7.248;2022-09-19T00:23:00;100817.75;;;8.68;100.00
51359;BME280;37448;51.588;7.248;2022-09-19T00:26:00;100810.66;;;8.67;100.00
51359;BME280;37448;51.588;7.248;2022-09-19T00:28:31;100815.44;;;8.70;100.00
51359;BME280;37448;51.588;7.248;2022-09-19T00:31:02;100816.31;;;8.75;100.00
51359;BME280;37448;51.588;7.248;2022-09-19T00:33:33;100809.94;;;8.70;100.00
51359;BME280;37448;51.588;7.248;2022-09-19T00:36:04;100814.91;;;8.65;100.00
51359;BME280;37448;51.588;7.248;2022-09-19T00:38:34;100828.59;;;8.65;100.00
51359;BME280;37448;51.588;7.248;2022-09-19T00:41:05;100824.69;;;8.66;100.00
51359;BME280;37448;51.588;7.248;2022-09-19T00:43:53;100827.19;;;8.71;100.00
51359;BME280;37448;51.588;7.248;2022-09-19T00:46:26;100831.53;;;8.72;100.00
51359;BME280;37448;51.588;7.248;2022-09-19T00:49:02;100823.22;;;8.68;100.00
51359;BME280;37448;51.588;7.248;2022-09-19T00:51:42;100826.19;;;8.63;100.00
51359;BME280;37448;51.588;7.248;2022-09-19T00:54:22;100835.13;;;8.60;100.00
51359;BME280;37448;51.588;7.248;2022-09-19T00:56:55;100830.66;;;8.56;100.00
51359;BME280;37448;51.588;7.248;2022-09-19T00:59:27;100834.44;;;8.51;100.00
51359;BME280;37448;51.588;7.248;2022-09-19T01:02:00;100835.91;;;8.49;100.00
51359;BME280;37448;51.588;7.248;2022-09-19T01:04:33;100834.69;;;8.46;100.00
51359;BME280;37448;51.588;7.248;2022-09-19T01:07:43;100841.06;;;8.50;100.00
51359;BME280;37448;51.588;7.248;2022-09-19T01:10:45;100844.72;;;8.42;100.00
51359;BME280;37448;51.588;7.248;2022-09-19T01:13:21;100836.84;;;8.41;100.00
51359;BME280;37448;51.588;7.248;2022-09-19T01:16:23;100844.03;;;8.45;100.00
51359;BME280;37448;51.588;7.248;2022-09-19T01:18:59;100841.09;;;8.38;100.00
51359;BME280;37448;51.588;7.248;2022-09-19T01:21:45;100841.31;;;8.33;100.00
51359;BME280;37448;51.588;7.248;2022-09-19T01:24:33;100851.03;;;8.31;100.00
51359;BME280;37448;51.588;7.248;2022-09-19T01:30:00;100855.22;;;8.40;100.00
51359;BME280;37448;51.588;7.248;2022-09-19T01:32:36;100852.63;;;8.44;100.00
51359;BME280;37448;51.588;7.248;2022-09-19T01:35:11;100848.47;;;8.50;100.00
51359;BME280;37448;51.588;7.248;2022-09-19T01:37:49;100852.13;;;8.54;100.00
51359;BME280;37448;51.588;7.248;2022-09-19T01:40:21;100860.00;;;8.55;100.00
51359;BME280;37448;51.588;7.248;2022-09-19T01:42:54;100850.19;;;8.54;100.00
51359;BME280;37448;51.588;7.248;2022-09-19T01:45:31;100856.69;;;8.50;100.00
51359;BME280;37448;51.588;7.248;2022-09-19T01:48:27;100865.94;;;8.45;100.00
51359;BME280;37448;51.588;7.248;2022-09-19T01:51:29;100861.63;;;8.44;100.00
51359;BME280;37448;51.588;7.248;2022-09-19T01:54:29;100870.75;;;8.36;100.00
51359;BME280;37448;51.588;7.248;2022-09-19T01:57:29;100878.41;;;8.31;100.00
51359;BME280;37448;51.588;7.248;2022-09-19T02:00:15;100871.00;;;8.31;100.00
51359;BME280;37448;51.588;7.248;2022-09-19T02:03:07;100876.91;;;8.33;100.00
51359;BME280;37448;51.588;7.248;2022-09-19T02:05:54;100874.66;;;8.35;100.00
51359;BME280;37448;51.588;7.248;2022-09-19T02:08:58;100869.19;;;8.35;100.00
51359;BME280;37448;51.588;7.248;2022-09-19T02:11:31;100867.09;;;8.32;100.00
51359;BME280;37448;51.588;7.248;2022-09-19T02:14:06;100860.84;;;8.32;100.00
51359;BME280;37448;51.588;7.248;2022-09-19T02:19:25;100879.66;;;8.33;100.00
51359;BME280;37448;51.588;7.248;2022-09-19T02:22:03;100873.84;;;8.35;100.00
51359;BME280;37448;51.588;7.248;2022-09-19T02:24:38;100885.81;;;8.42;100.00
51359;BME280;37448;51.588;7.248;2022-09-19T02:27:17;100886.16;;;8.41;100.00
51359;BME280;37448;51.588;7.248;2022-09-19T02:29:53;100880.56;;;8.37;100.00
51359;BME280;37448;51.588;7.248;2022-09-19T02:32:25;100885.13;;;8.33;100.00
51359;BME280;37448;51.588;7.248;2022-09-19T02:34:56;100883.31;;;8.37;100.00
51359;BME280;37448;51.588;7.248;2022-09-19T02:37:35;100886.28;;;8.32;100.00
51359;BME280;37448;51.588;7.248;2022-09-19T02:40:34;100888.56;;;8.30;100.00
51359;BME280;37448;51.588;7.248;2022-09-19T02:43:22;100897.09;;;8.28;100.00
51359;BME280;37448;51.588;7.248;2022-09-19T02:45:55;100898.59;;;8.26;100.00
51359;BME280;37448;51.588;7.248;2022-09-19T02:48:39;100899.38;;;8.26;100.00
51359;BME280;37448;51.588;7.248;2022-09-19T02:51:23;100904.88;;;8.26;100.00
51359;BME280;37448;51.588;7.248;2022-09-19T02:53:59;100894.25;;;8.25;100.00
51359;BME280;37448;51.588;7.248;2022-09-19T02:56:33;100904.88;;;8.26;100.00
51359;BME280;37448;51.588;7.248;2022-09-19T02:59:08;100904.06;;;8.26;100.00
51359;BME280;37448;51.588;7.248;2022-09-19T03:01:45;100899.53;;;8.30;100.00
51359;BME280;37448;51.588;7.248;2022-09-19T03:04:22;100905.09;;;8.34;100.00
51359;BME280;37448;51.588;7.248;2022-09-19T03:09:51;100904.41;;;8.37;100.00
51359;BME280;37448;51.588;7.248;2022-09-19T03:12:45;100919.16;;;8.44;100.00
51359;BME280;37448;51.588;7.248;2022-09-19T03:15:24;100918.91;;;8.37;100.00
51359;BME280;37448;51.588;7.248;2022-09-19T03:17:57;100922.56;;;8.41;100.00
51359;BME280;37448;51.588;7.248;2022-09-19T03:20:28;100919.50;;;8.43;100.00
51359;BME280;37448;51.588;7.248;2022-09-19T03:22:59;100917.09;;;8.41;100.00
51359;BME280;37448;51.588;7.248;2022-09-19T03:25:29;100924.84;;;8.39;100.00
51359;BME280;37448;51.588;7.248;2022-09-19T03:28:00;100922.66;;;8.33;100.00
51359;BME280;37448;51.588;7.248;2022-09-19T03:30:31;100923.66;;;8.28;100.00
51359;BME280;37448;51.588;7.248;2022-09-19T03:33:01;100915.00;;;8.26;100.00
51359;BME280;37448;51.588;7.248;2022-09-19T03:35:32;100920.81;;;8.24;100.00
51359;BME280;37448;51.588;7.248;2022-09-19T03:38:02;100922.88;;;8.27;100.00
51359;BME280;37448;51.588;7.248;2022-09-19T03:40:32;100922.22;;;8.31;100.00
51359;BME280;37448;51.588;7.248;2022-09-19T03:43:03;100927.13;;;8.37;100.00
51359;BME280;37448;51.588;7.248;2022-09-19T03:45:35;100921.91;;;8.44;100.00
51359;BME280;37448;51.588;7.248;2022-09-19T03:48:05;100929.19;;;8.52;100.00
51359;BME280;37448;51.588;7.248;2022-09-19T03:50:36;100926.78;;;8.51;100.00
51359;BME280;37448;51.588;7.248;2022-09-19T03:53:06;100930.31;;;8.51;100.00
51359;BME280;37448;51.588;7.248;2022-09-19T03:55:37;100932.16;;;8.47;100.00
51359;BME280;37448;51.588;7.248;2022-09-19T03:58:08;100935.47;;;8.53;100.00
51359;BME280;37448;51.588;7.248;2022-09-19T04:00:40;100935.56;;;8.56;100.00
51359;BME280;37448;51.588;7.248;2022-09-19T04:03:11;100939.56;;;8.59;100.00
51359;BME280;37448;51.588;7.248;2022-09-19T04:05:42;100941.28;;;8.63;100.00
51359;BME280;37448;51.588;7.248;2022-09-19T04:08:12;100950.06;;;8.69;100.00
51359;BME280;37448;51.588;7.248;2022-09-19T04:10:43;100947.09;;;8.74;100.00
51359;BME280;37448;51.588;7.248;2022-09-19T04:13:13;100943.19;;;8.75;100.00
51359;BME280;37448;51.588;7.248;2022-09-19T04:15:44;100947.19;;;8.78;100.00
51359;BME280;37448;51.588;7.248;2022-09-19T04:18:15;100947.88;;;8.75;100.00
51359;BME280;37448;51.588;7.248;2022-09-19T04:20:47;100949.69;;;8.83;100.00
51359;BME280;37448;51.588;7.248;2022-09-19T04:23:21;100948.91;;;8.82;100.00
51359;BME280;37448;51.588;7.248;2022-09-19T04:25:51;100950.16;;;8.85;100.00
51359;BME280;37448;51.588;7.248;2022-09-19T04:28:21;100950.63;;;8.87;100.00
51359;BME280;37448;51.588;7.248;2022-09-19T04:30:53;100948.66;;;8.87;100.00
51359;BME280;37448;51.588;7.248;2022-09-19T04:33:25;100952.19;;;8.88;100.00
51359;BME280;37448;51.588;7.248;2022-09-19T04:35:56;100954.50;;;8.86;100.00
51359;BME280;37448;51.588;7.248;2022-09-19T04:38:30;100950.63;;;8.87;100.00
51359;BME280;37448;51.588;7.248;2022-09-19T04:41:01;100950.16;;;8.85;100.00
51359;BME280;37448;51.588;7.248;2022-09-19T04:43:31;100954.72;;;8.81;100.00
51359;BME280;37448;51.588;7.248;2022-09-19T04:46:02;100957.47;;;8.81;100.00
51359;BME280;37448;51.588;7.248;2022-09-19T04:48:32;100958.06;;;8.74;100.00
51359;BME280;37448;51.588;7.248;2022-09-19T04:51:03;100963.88;;;8.73;100.00
51359;BME280;37448;51.588;7.248;2022-09-19T04:53:35;100965.81;;;8.72;100.00
51359;BME280;37448;51.588;7.248;2022-09-19T04:56:09;100976.88;;;8.76;100.00
51359;BME280;37448;51.588;7.248;2022-09-19T04:58:40;100971.59;;;8.83;100.00
51359;BME280;37448;51.588;7.248;2022-09-19T05:01:12;100975.50;;;8.82;100.00
51359;BME280;37448;51.588;7.248;2022-09-19T05:03:44;100976.97;;;8.79;100.00
51359;BME280;37448;51.588;7.248;2022-09-19T05:06:15;100974.00;;;8.84;100.00
51359;BME280;37448;51.588;7.248;2022-09-19T05:08:46;100977.44;;;8.81;100.00
51359;BME280;37448;51.588;7.248;2022-09-19T05:11:16;100992.28;;;8.80;100.00
51359;BME280;37448;51.588;7.248;2022-09-19T05:13:49;100997.34;;;8.78;100.00
51359;BME280;37448;51.588;7.248;2022-09-19T05:16:19;100998.81;;;8.76;100.00
51359;BME280;37448;51.588;7.248;2022-09-19T05:18:50;100992.06;;;8.73;100.00
51359;BME280;37448;51.588;7.248;2022-09-19T05:21:20;100996.19;;;8.67;100.00
51359;BME280;37448;51.588;7.248;2022-09-19T05:23:51;100998.91;;;8.67;100.00
51359;BME280;37448;51.588;7.248;2022-09-19T05:26:21;100991.84;;;8.66;100.00
51359;BME280;37448;51.588;7.248;2022-09-19T05:28:53;100999.50;;;8.60;100.00
51359;BME280;37448;51.588;7.248;2022-09-19T05:31:23;100999.03;;;8.58;100.00
51359;BME280;37448;51.588;7.248;2022-09-19T05:33:55;101010.78;;;8.59;100.00
51359;BME280;37448;51.588;7.248;2022-09-19T05:36:26;101000.63;;;8.59;100.00
51359;BME280;37448;51.588;7.248;2022-09-19T05:38:57;101012.72;;;8.58;100.00
51359;BME280;37448;51.588;7.248;2022-09-19T05:41:28;101010.09;;;8.62;100.00
51359;BME280;37448;51.588;7.248;2022-09-19T05:43:58;101006.91;;;8.60;100.00
51359;BME280;37448;51.588;7.248;2022-09-19T05:46:29;101014.34;;;8.59;100.00
51359;BME280;37448;51.588;7.248;2022-09-19T05:48:59;101019.59;;;8.64;100.00
51359;BME280;37448;51.588;7.248;2022-09-19T05:51:30;101015.72;;;8.65;100.00
51359;BME280;37448;51.588;7.248;2022-09-19T05:54:00;101026.31;;;8.67;100.00
51359;BME280;37448;51.588;7.248;2022-09-19T05:56:30;101026.44;;;8.70;100.00
51359;BME280;37448;51.588;7.248;2022-09-19T05:59:01;101030.09;;;8.75;100.00
51359;BME280;37448;51.588;7.248;2022-09-19T06:01:31;101031.00;;;8.79;100.00
51359;BME280;37448;51.588;7.248;2022-09-19T06:04:02;101031.91;;;8.83;100.00
51359;BME280;37448;51.588;7.248;2022-09-19T06:06:35;101031.56;;;8.84;100.00
51359;BME280;37448;51.588;7.248;2022-09-19T06:09:06;101047.69;;;8.86;100.00
51359;BME280;37448;51.588;7.248;2022-09-19T06:11:36;101040.25;;;8.86;100.00
51359;BME280;37448;51.588;7.248;2022-09-19T06:14:07;101047.78;;;8.89;100.00
51359;BME280;37448;51.588;7.248;2022-09-19T06:16:49;101047.91;;;8.93;100.00
51359;BME280;37448;51.588;7.248;2022-09-19T06:19:19;101051.13;;;8.95;100.00
51359;BME280;37448;51.588;7.248;2022-09-19T06:21:50;101048.81;;;8.97;100.00
51359;BME280;37448;51.588;7.248;2022-09-19T06:24:21;101054.06;;;9.02;100.00
51359;BME280;37448;51.588;7.248;2022-09-19T06:26:52;101050.53;;;9.01;100.00
51359;BME280;37448;51.588;7.248;2022-09-19T06:29:24;101061.59;;;9.05;100.00
51359;BME280;37448;51.588;7.248;2022-09-19T06:31:55;101069.59;;;9.10;100.00
51359;BME280;37448;51.588;7.248;2022-09-19T06:34:25;101074.63;;;9.20;100.00
51359;BME280;37448;51.588;7.248;2022-09-19T06:36:56;101070.94;;;9.28;100.00
51359;BME280;37448;51.588;7.248;2022-09-19T06:39:26;101071.97;;;9.36;100.00
51359;BME280;37448;51.588;7.248;2022-09-19T06:41:56;101072.47;;;9.66;100.00
51359;BME280;37448;51.588;7.248;2022-09-19T06:44:27;101076.31;;;10.04;100.00
51359;BME280;37448;51.588;7.248;2022-09-19T06:46:57;101082.22;;;10.19;100.00
51359;BME280;37448;51.588;7.248;2022-09-19T06:49:29;101087.38;;;10.36;100.00
51359;BME280;37448;51.588;7.248;2022-09-19T06:51:59;101080.84;;;10.40;100.00
51359;BME280;37448;51.588;7.248;2022-09-19T06:54:30;101086.69;;;10.39;100.00
51359;BME280;37448;51.588;7.248;2022-09-19T06:57:01;101081.88;;;10.36;100.00
51359;BME280;37448;51.588;7.248;2022-09-19T06:59:31;101087.38;;;10.36;100.00
51359;BME280;37448;51.588;7.248;2022-09-19T07:02:02;101091.47;;;10.42;100.00
51359;BME280;37448;51.588;7.248;2022-09-19T07:04:32;101088.81;;;10.45;100.00
51359;BME280;37448;51.588;7.248;2022-09-19T07:07:04;101085.38;;;10.48;100.00
51359;BME280;37448;51.588;7.248;2022-09-19T07:09:35;101088.56;;;10.50;100.00
51359;BME280;37448;51.588;7.248;2022-09-19T07:12:07;101090.81;;;10.61;100.00
51359;BME280;37448;51.588;7.248;2022-09-19T07:14:38;101096.81;;;10.66;100.00
51359;BME280;37448;51.588;7.248;2022-09-19T07:17:08;101097.28;;;10.68;100.00
51359;BME280;37448;51.588;7.248;2022-09-19T07:19:38;101103.19;;;10.70;100.00
51359;BME280;37448;51.588;7.248;2022-09-19T07:22:09;101100.91;;;10.72;100.00
51359;BME280;37448;51.588;7.248;2022-09-19T07:24:40;101104.00;;;10.71;100.00
51359;BME280;37448;51.588;7.248;2022-09-19T07:27:10;101113.50;;;10.73;100.00
51359;BME280;37448;51.588;7.248;2022-09-19T07:29:41;101110.75;;;10.89;100.00
51359;BME280;37448;51.588;7.248;2022-09-19T07:32:11;101114.28;;;11.90;100.00
51359;BME280;37448;51.588;7.248;2022-09-19T07:34:41;101116.66;;;12.72;100.00
51359;BME280;37448;51.588;7.248;2022-09-19T07:37:12;101109.03;;;13.64;100.00
51359;BME280;37448;51.588;7.248;2022-09-19T07:39:42;101109.66;;;14.87;100.00
51359;BME280;37448;51.588;7.248;2022-09-19T07:42:13;101114.09;;;15.50;100.00
51359;BME280;37448;51.588;7.248;2022-09-19T07:44:43;101121.41;;;15.86;100.00
51359;BME280;37448;51.588;7.248;2022-09-19T07:47:13;101125.84;;;16.02;98.36
51359;BME280;37448;51.588;7.248;2022-09-19T07:49:59;101123.78;;;15.84;100.00
51359;BME280;37448;51.588;7.248;2022-09-19T07:52:29;101126.09;;;15.75;98.97
51359;BME280;37448;51.588;7.248;2022-09-19T07:54:59;101124.28;;;15.42;96.85
51359;BME280;37448;51.588;7.248;2022-09-19T07:57:30;101129.84;;;15.46;97.39
51359;BME280;37448;51.588;7.248;2022-09-19T08:00:00;101130.31;;;16.38;98.03
51359;BME280;37448;51.588;7.248;2022-09-19T08:02:31;101135.50;;;16.50;84.39
51359;BME280;37448;51.588;7.248;2022-09-19T08:05:01;101138.38;;;17.24;94.15
51359;BME280;37448;51.588;7.248;2022-09-19T08:07:32;101134.31;;;17.89;90.11
51359;BME280;37448;51.588;7.248;2022-09-19T08:10:02;101143.59;;;18.45;86.64
51359;BME280;37448;51.588;7.248;2022-09-19T08:12:33;101143.50;;;17.61;79.63
51359;BME280;37448;51.588;7.248;2022-09-19T08:15:03;101147.09;;;17.37;79.29
51359;BME280;37448;51.588;7.248;2022-09-19T08:17:34;101149.00;;;17.83;78.89
51359;BME280;37448;51.588;7.248;2022-09-19T08:20:06;101156.44;;;18.17;82.28
51359;BME280;37448;51.588;7.248;2022-09-19T08:22:37;101148.63;;;18.75;82.26
51359;BME280;37448;51.588;7.248;2022-09-19T08:25:07;101146.84;;;18.25;76.34
51359;BME280;37448;51.588;7.248;2022-09-19T08:27:37;101149.50;;;18.57;73.58
51359;BME280;37448;51.588;7.248;2022-09-19T08:30:08;101152.44;;;19.39;76.04
51359;BME280;37448;51.588;7.248;2022-09-19T08:32:39;101150.09;;;19.79;75.24
51359;BME280;37448;51.588;7.248;2022-09-19T08:35:09;101157.56;;;20.53;79.38
51359;BME280;37448;51.588;7.248;2022-09-19T08:37:40;101168.00;;;19.81;65.68
51359;BME280;37448;51.588;7.248;2022-09-19T08:40:17;101167.88;;;19.92;67.40
51359;BME280;37448;51.588;7.248;2022-09-19T08:43:11;101162.25;;;19.58;66.11
51359;BME280;37448;51.588;7.248;2022-09-19T08:53:53;101172.97;;;19.63;67.80
51359;BME280;37448;51.588;7.248;2022-09-19T08:56:25;101180.41;;;19.77;66.05
51359;BME280;37448;51.588;7.248;2022-09-19T08:59:04;101174.56;;;19.60;65.22
51359;BME280;37448;51.588;7.248;2022-09-19T09:01:38;101169.22;;;20.14;67.36
51359;BME280;37448;51.588;7.248;2022-09-19T09:04:24;101183.22;;;20.71;65.06
51359;BME280;37448;51.588;7.248;2022-09-19T09:10:07;101176.66;;;19.90;61.23
51359;BME280;37448;51.588;7.248;2022-09-19T09:15:53;101181.19;;;19.33;66.02
51359;BME280;37448;51.588;7.248;2022-09-19T09:18:46;101178.19;;;19.57;65.27
51359;BME280;37448;51.588;7.248;2022-09-19T09:23:59;101177.81;;;18.35;66.78
51359;BME280;37448;51.588;7.248;2022-09-19T09:26:36;101178.38;;;17.94;67.64
51359;BME280;37448;51.588;7.248;2022-09-19T09:32:19;101171.88;;;16.24;70.94
51359;BME280;37448;51.588;7.248;2022-09-19T09:35:18;101177.72;;;16.05;72.95
51359;BME280;37448;51.588;7.248;2022-09-19T09:38:04;101171.53;;;16.46;75.42
51359;BME280;37448;51.588;7.248;2022-09-19T09:40:43;101176.81;;;16.76;71.74
51359;BME280;37448;51.588;7.248;2022-09-19T09:43:38;101172.44;;;16.61;78.28
51359;BME280;37448;51.588;7.248;2022-09-19T09:46:23;101175.63;;;17.91;70.86
51359;BME280;37448;51.588;7.248;2022-09-19T09:49:00;101176.25;;;18.37;64.14
51359;BME280;37448;51.588;7.248;2022-09-19T09:58:18;101178.66;;;18.28;64.95
51359;BME280;37448;51.588;7.248;2022-09-19T10:01:09;101177.19;;;17.88;61.59
51359;BME280;37448;51.588;7.248;2022-09-19T10:04:35;101177.25;;;17.03;66.12
51359;BME280;37448;51.588;7.248;2022-09-19T10:10:00;101165.97;;;18.23;68.42
51359;BME280;37448;51.588;7.248;2022-09-19T10:12:38;101164.91;;;19.28;65.72
51359;BME280;37448;51.588;7.248;2022-09-19T10:15:20;101165.72;;;19.69;63.09
51359;BME280;37448;51.588;7.248;2022-09-19T10:17:56;101166.03;;;19.78;52.67
51359;BME280;37448;51.588;7.248;2022-09-19T10:20:43;101167.66;;;19.35;56.51
51359;BME280;37448;51.588;7.248;2022-09-19T10:23:29;101176.19;;;18.44;58.61
51359;BME280;37448;51.588;7.248;2022-09-19T10:26:05;101164.06;;;17.96;61.98
51359;BME280;37448;51.588;7.248;2022-09-19T10:28:52;101170.03;;;17.98;64.17
51359;BME280;37448;51.588;7.248;2022-09-19T10:31:33;101169.28;;;18.74;64.52
51359;BME280;37448;51.588;7.248;2022-09-19T10:34:22;101170.44;;;17.93;64.78
51359;BME280;37448;51.588;7.248;2022-09-19T10:36:54;101166.94;;;17.39;66.41
51359;BME280;37448;51.588;7.248;2022-09-19T10:39:27;101161.81;;;17.06;67.46
51359;BME280;37448;51.588;7.248;2022-09-19T10:41:59;101147.91;;;16.95;68.28
51359;BME280;37448;51.588;7.248;2022-09-19T10:44:29;101152.63;;;16.73;67.60
51359;BME280;37448;51.588;7.248;2022-09-19T10:47:03;101149.06;;;16.69;70.49
51359;BME280;37448;51.588;7.248;2022-09-19T10:49:45;101153.34;;;16.56;67.03
51359;BME280;37448;51.588;7.248;2022-09-19T10:52:22;101159.34;;;16.62;67.39
51359;BME280;37448;51.588;7.248;2022-09-19T10:54:57;101156.63;;;16.97;69.10
51359;BME280;37448;51.588;7.248;2022-09-19T11:00:27;101155.66;;;18.13;60.59
51359;BME280;37448;51.588;7.248;2022-09-19T11:03:02;101163.34;;;17.70;62.99
51359;BME280;37448;51.588;7.248;2022-09-19T11:05:34;101159.78;;;17.24;72.70
51359;BME280;37448;51.588;7.248;2022-09-19T11:08:22;101161.75;;;16.74;74.04
51359;BME280;37448;51.588;7.248;2022-09-19T11:10:53;101157.72;;;16.50;76.83
51359;BME280;37448;51.588;7.248;2022-09-19T11:13:24;101158.97;;;16.77;77.37
51359;BME280;37448;51.588;7.248;2022-09-19T11:16:14;101149.84;;;16.80;78.08
51359;BME280;37448;51.588;7.248;2022-09-19T11:21:38;101147.03;;;16.59;78.94
51359;BME280;37448;51.588;7.248;2022-09-19T11:27:23;101153.44;;;17.41;69.94
51359;BME280;37448;51.588;7.248;2022-09-19T11:32:37;101151.06;;;17.64;67.52
51359;BME280;37448;51.588;7.248;2022-09-19T11:35:37;101148.31;;;18.58;65.41
51359;BME280;37448;51.588;7.248;2022-09-19T11:38:36;101146.56;;;18.02;62.64
51359;BME280;37448;51.588;7.248;2022-09-19T11:44:35;101158.94;;;17.84;61.01
51359;BME280;37448;51.588;7.248;2022-09-19T12:05:17;101146.69;;;17.56;60.99
51359;BME280;37448;51.588;7.248;2022-09-19T12:10:52;101146.50;;;18.23;61.32
51359;BME280;37448;51.588;7.248;2022-09-19T12:13:41;101147.69;;;18.22;59.96
51359;BME280;37448;51.588;7.248;2022-09-19T12:16:23;101152.09;;;18.13;58.28
51359;BME280;37448;51.588;7.248;2022-09-19T12:18:58;101147.78;;;17.94;56.53
51359;BME280;37448;51.588;7.248;2022-09-19T12:21:37;101146.25;;;17.75;57.47
51359;BME280;37448;51.588;7.248;2022-09-19T12:24:15;101139.97;;;17.11;61.18
51359;BME280;37448;51.588;7.248;2022-09-19T12:27:14;101141.53;;;16.87;61.75
51359;BME280;37448;51.588;7.248;2022-09-19T12:29:52;101142.72;;;16.90;64.37
51359;BME280;37448;51.588;7.248;2022-09-19T12:43:47;101140.66;;;16.44;65.59
51359;BME280;37448;51.588;7.248;2022-09-19T12:49:40;101144.69;;;16.61;65.11
51359;BME280;37448;51.588;7.248;2022-09-19T12:52:18;101143.13;;;16.67;64.85
51359;BME280;37448;51.588;7.248;2022-09-19T12:54:59;101137.56;;;16.71;63.53
51359;BME280;37448;51.588;7.248;2022-09-19T13:00:45;101143.13;;;16.74;58.83
51359;BME280;37448;51.588;7.248;2022-09-19T13:03:24;101130.41;;;16.77;57.85
51359;BME280;37448;51.588;7.248;2022-09-19T13:06:03;101143.91;;;16.82;58.76
51359;BME280;37448;51.588;7.248;2022-09-19T13:08:43;101135.19;;;16.80;59.37
51359;BME280;37448;51.588;7.248;2022-09-19T13:14:01;101144.28;;;16.73;59.70
51359;BME280;37448;51.588;7.248;2022-09-19T13:16:35;101147.06;;;16.80;61.74
51359;BME280;37448;51.588;7.248;2022-09-19T13:19:35;101140.75;;;16.83;62.01
51359;BME280;37448;51.588;7.248;2022-09-19T13:22:24;101139.53;;;16.74;60.34
51359;BME280;37448;51.588;7.248;2022-09-19T13:25:19;101153.84;;;16.79;63.14
51359;BME280;37448;51.588;7.248;2022-09-19T13:30:59;101174.25;;;16.25;73.59
51359;BME280;37448;51.588;7.248;2022-09-19T13:33:48;101197.75;;;15.26;79.78
51359;BME280;37448;51.588;7.248;2022-09-19T13:38:54;101195.47;;;13.42;84.30
51359;BME280;37448;51.588;7.248;2022-09-19T13:41:57;101207.03;;;13.24;90.31
51359;BME280;37448;51.588;7.248;2022-09-19T13:44:38;101190.75;;;12.97;96.47
51359;BME280;37448;51.588;7.248;2022-09-19T13:47:24;101180.16;;;12.76;100.00
51359;BME280;37448;51.588;7.248;2022-09-19T13:50:38;101197.56;;;12.61;100.00
51359;BME280;37448;51.588;7.248;2022-09-19T13:53:29;101189.09;;;12.50;100.00
51359;BME280;37448;51.588;7.248;2022-09-19T13:56:20;101184.97;;;12.41;100.00
51359;BME280;37448;51.588;7.248;2022-09-19T14:01:54;101187.16;;;12.31;100.00
51359;BME280;37448;51.588;7.248;2022-09-19T14:10:25;101197.31;;;12.27;100.00
51359;BME280;37448;51.588;7.248;2022-09-19T14:13:00;101188.22;;;12.27;100.00
51359;BME280;37448;51.588;7.248;2022-09-19T14:20:53;101188.44;;;12.57;100.00
51359;BME280;37448;51.588;7.248;2022-09-19T14:23:30;101182.91;;;12.76;100.00
51359;BME280;37448;51.588;7.248;2022-09-19T14:40:13;101202.38;;;12.64;100.00
51359;BME280;37448;51.588;7.248;2022-09-19T14:42:55;101209.91;;;12.67;100.00
51359;BME280;37448;51.588;7.248;2022-09-19T14:48:25;101201.13;;;12.61;100.00
51359;BME280;37448;51.588;7.248;2022-09-19T14:54:27;101213.75;;;12.62;100.00
51359;BME280;37448;51.588;7.248;2022-09-19T14:57:01;101231.84;;;12.60;100.00
51359;BME280;37448;51.588;7.248;2022-09-19T14:59:33;101229.09;;;12.41;100.00
51359;BME280;37448;51.588;7.248;2022-09-19T15:02:17;101224.88;;;12.27;100.00
51359;BME280;37448;51.588;7.248;2022-09-19T15:05:03;101237.00;;;12.42;100.00
51359;BME280;37448;51.588;7.248;2022-09-19T15:07:33;101229.69;;;12.30;100.00
51359;BME280;37448;51.588;7.248;2022-09-19T15:15:48;101247.94;;;12.77;100.00
51359;BME280;37448;51.588;7.248;2022-09-19T15:18:24;101244.06;;;12.81;100.00
51359;BME280;37448;51.588;7.248;2022-09-19T15:20:57;101226.00;;;12.84;100.00
51359;BME280;37448;51.588;7.248;2022-09-19T15:23:33;101225.78;;;13.15;100.00
51359;BME280;37448;51.588;7.248;2022-09-19T15:26:07;101219.66;;;13.25;100.00
51359;BME280;37448;51.588;7.248;2022-09-19T15:28:41;101223.59;;;13.47;100.00
51359;BME280;37448;51.588;7.248;2022-09-19T15:31:24;101224.53;;;13.58;100.00
51359;BME280;37448;51.588;7.248;2022-09-19T15:34:19;101213.22;;;13.67;100.00
51359;BME280;37448;51.588;7.248;2022-09-19T15:36:50;101206.00;;;13.59;100.00
51359;BME280;37448;51.588;7.248;2022-09-19T15:39:21;101210.00;;;13.61;100.00
51359;BME280;37448;51.588;7.248;2022-09-19T15:41:52;101201.47;;;13.70;100.00
51359;BME280;37448;51.588;7.248;2022-09-19T15:44:26;101203.84;;;13.71;100.00
51359;BME280;37448;51.588;7.248;2022-09-19T15:47:02;101202.66;;;13.46;100.00
51359;BME280;37448;51.588;7.248;2022-09-19T15:49:37;101204.50;;;13.39;100.00
51359;BME280;37448;51.588;7.248;2022-09-19T15:52:16;101199.94;;;13.23;100.00
51359;BME280;37448;51.588;7.248;2022-09-19T15:54:50;101205.56;;;13.31;100.00